Impacts TAF Board INFO
FOR SITUATIONAL AWARENESS. NOT TO BE USED FOR FLIGHT PLANNING PURPOSES.
IDs:

KATL - Atlanta/Hartsfield-J, GA, US

Issued at 1129 UTC 25 Sep 2017
Updated at 1328 UTC 25 Sep 2017
Potential Impact None Slight Moderate High
Time1252Z 25/14Z 25/15Z 25/16Z 25/17Z 25/18Z 25/19Z 25/20Z 25/21Z 25/22Z 25/23Z 26/00Z 26/01Z 26/02Z>>
Type OBS PRVL PRVL PRVL PRVL PRVL PRVL PRVL PRVL PRVL PRVL PRVL PRVL PRVL
VIS 10 >6 >6 >6 >6 >6 >6 >6 >6 >6 >6 >6 >6 >6
CIG -- -- -- -- -- -- -- -- -- -- -- -- -- --
Cover FEW SCT SCT SCT SCT SCT SCT SCT SCT SCT SCT SKC SKC SKC
FltCat VFR VFR VFR VFR VFR VFR VFR VFR VFR VFR VFR VFR VFR VFR
WX -- -- -- -- -- -- -- -- -- -- -- -- -- --
WDir 50 60 60 50 50 50 50 50 50 50 50 40 40 40
WSpd 10 6 6 9 9 9 9 9 9 9 9 4 4 4
WGst 16 -- -- -- -- -- -- -- -- -- -- -- -- --

Raw TAF
KATL 251129Z 2512/2618 06006KT P6SM SCT250
  FM251600 05009KT P6SM FEW050 SCT250
  FM260000 04004KT P6SM SKC
  FM261600 01008KT P6SM FEW050


Raw METAR
KATL 251252Z 05010G16KT 10SM FEW200 FEW250 23/17 A3004 RMK AO2 SLP163 T02330172
KATL 251152Z 06008KT 10SM FEW200 FEW250 22/17 A3003 RMK AO2 SLP160 T02220172 10228 20217 53005
KATL 251052Z 06006KT 10SM SCT250 22/18 A3002 RMK AO2 SLP157 T02170178

METAR Board
Radar Display
Forecast Discussion

FOR SITUATIONAL AWARENESS. NOT TO BE USED FOR FLIGHT PLANNING PURPOSES.